首页
METAR-TAF:

METAR-TAF

机场 :

蘇聖瑪麗, 安大略省, 加拿大

纬度: 46-29N, 经度: 084-30W, 海拔: 187米

当前天气观测

该预报发布于57分钟前的07:00 UTC
风速9节,风向西转西北
温度 15°C
湿度 77%
气压 1015 hPa
能見度: 40.2公里
少量云层高于12000英尺
散云层高于17000英尺
多云层高于28000英尺

METAR: CYAM 230700Z 29009KT 25SM FEW120 SCT170 BKN280 15/11 A2998 RMK AC1AC2CI2 SLP156 DENSITY ALT 700FT

时间: 03:57 (07:57 UTC)

预报

该预报发布于19分钟前的07:38 UTC
预报有效从23日的 08点(UTC)到 23日的 20点(UTC)
风速8节,风向西转西北
能見度: 10公里
多云层高于8000英尺
短暂存在
从 23日的 08点(UTC)到 23日的 14点(UTC)
能見度: 10公里
小阵雨
从 23日的 1400点(UTC)
风速8节,风向东转东北
能見度: 10公里
散云层高于2000英尺
短暂存在
从 23日的 14点(UTC)到 23日的 18点(UTC)
多云层高于2000英尺
从 23日的 1800点(UTC)
风速10节,风向西北
能見度: 10公里
天空无云

TAF: CYAM 230738Z 2308/2320 29008KT P6SM BKN080 TEMPO 2308/2314 P6SM -SHRA FM231400 07008KT P6SM SCT020 TEMPO 2314/2318 BKN020 FM231800 31010KT P6SM SKC RMK NXT FCST BY 231400Z

超过4000个机场的气象观测和天气预报(METAR&TAF报告)。

可查询的气象台以黄色和红色小点在地图上表示。

将鼠标移到小点上方,可查看气象台名称。

然后点击查看天气观测和预报。

如需切换地图:点击带黑十字的绿色按钮放大地图;点击带横线的绿色按钮缩小地图;或者点击绿色箭头查看邻近地区的地图。


METAR-TAF: